sensor_id;sensor_type;location;lat;lon;timestamp;pressure;altitude;pressure_sealevel;temperature;humidity
53940;BME280;39850;43.324;21.916;2023-12-07T00:00:11;990.0;;;3.5;91.0
53940;BME280;39850;43.324;21.916;2023-12-07T00:04:47;990.0;;;3.5;91.0
53940;BME280;39850;43.324;21.916;2023-12-07T00:09:24;990.0;;;3.5;91.0
53940;BME280;39850;43.324;21.916;2023-12-07T00:14:00;990.0;;;3.5;92.0
53940;BME280;39850;43.324;21.916;2023-12-07T00:18:37;990.0;;;3.5;92.0
53940;BME280;39850;43.324;21.916;2023-12-07T00:23:13;990.0;;;3.5;94.0
53940;BME280;39850;43.324;21.916;2023-12-07T00:27:50;990.0;;;3.5;94.0
53940;BME280;39850;43.324;21.916;2023-12-07T00:32:26;990.0;;;3.0;94.0
53940;BME280;39850;43.324;21.916;2023-12-07T00:37:03;990.0;;;3.0;94.0
53940;BME280;39850;43.324;21.916;2023-12-07T00:41:39;991.0;;;2.6;95.0
53940;BME280;39850;43.324;21.916;2023-12-07T00:46:15;991.0;;;2.6;95.0
53940;BME280;39850;43.324;21.916;2023-12-07T01:23:09;991.0;;;4.5;90.0
53940;BME280;39850;43.324;21.916;2023-12-07T01:27:45;991.0;;;4.5;90.0
53940;BME280;39850;43.324;21.916;2023-12-07T01:32:21;991.0;;;4.5;90.0
53940;BME280;39850;43.324;21.916;2023-12-07T01:36:58;991.0;;;4.5;90.0
53940;BME280;39850;43.324;21.916;2023-12-07T01:41:34;991.0;;;4.0;91.0
53940;BME280;39850;43.324;21.916;2023-12-07T01:46:12;991.0;;;4.0;91.0
53940;BME280;39850;43.324;21.916;2023-12-07T01:50:49;991.0;;;3.5;93.0
53940;BME280;39850;43.324;21.916;2023-12-07T01:55:32;991.0;;;3.5;93.0
53940;BME280;39850;43.324;21.916;2023-12-07T02:00:14;991.0;;;3.5;93.0
53940;BME280;39850;43.324;21.916;2023-12-07T02:04:51;991.0;;;3.5;93.0
53940;BME280;39850;43.324;21.916;2023-12-07T02:09:28;991.0;;;3.5;93.0
53940;BME280;39850;43.324;21.916;2023-12-07T02:42:33;991.0;;;4.0;89.0
53940;BME280;39850;43.324;21.916;2023-12-07T02:47:09;991.0;;;4.0;89.0
53940;BME280;39850;43.324;21.916;2023-12-07T02:51:46;991.0;;;3.8;89.0
53940;BME280;39850;43.324;21.916;2023-12-07T02:56:22;991.0;;;3.8;89.0
53940;BME280;39850;43.324;21.916;2023-12-07T03:00:58;991.0;;;3.5;90.0
53940;BME280;39850;43.324;21.916;2023-12-07T03:05:34;991.0;;;3.5;90.0
53940;BME280;39850;43.324;21.916;2023-12-07T03:10:10;991.0;;;3.5;90.0
53940;BME280;39850;43.324;21.916;2023-12-07T03:14:47;991.0;;;3.5;90.0
53940;BME280;39850;43.324;21.916;2023-12-07T03:19:23;991.0;;;3.5;90.0
53940;BME280;39850;43.324;21.916;2023-12-07T03:23:59;991.0;;;3.5;90.0
53940;BME280;39850;43.324;21.916;2023-12-07T03:28:36;991.0;;;3.5;90.0
53940;BME280;39850;43.324;21.916;2023-12-07T04:01:01;991.0;;;3.6;92.0
53940;BME280;39850;43.324;21.916;2023-12-07T04:05:38;991.0;;;3.6;92.0
53940;BME280;39850;43.324;21.916;2023-12-07T04:10:15;991.0;;;3.6;92.0
53940;BME280;39850;43.324;21.916;2023-12-07T04:14:52;991.0;;;3.4;92.0
53940;BME280;39850;43.324;21.916;2023-12-07T04:19:28;991.0;;;3.4;92.0
53940;BME280;39850;43.324;21.916;2023-12-07T04:24:06;991.0;;;3.3;92.0
53940;BME280;39850;43.324;21.916;2023-12-07T04:28:42;991.0;;;3.3;92.0
53940;BME280;39850;43.324;21.916;2023-12-07T04:33:19;991.0;;;2.9;92.0
53940;BME280;39850;43.324;21.916;2023-12-07T04:37:55;991.0;;;2.9;92.0
53940;BME280;39850;43.324;21.916;2023-12-07T04:42:31;991.0;;;2.5;92.0
53940;BME280;39850;43.324;21.916;2023-12-07T04:47:08;991.0;;;2.5;92.0
53940;BME280;39850;43.324;21.916;2023-12-07T05:23:59;992.0;;;3.5;85.0
53940;BME280;39850;43.324;21.916;2023-12-07T05:28:37;992.0;;;3.5;85.0
53940;BME280;39850;43.324;21.916;2023-12-07T05:33:14;992.0;;;3.5;85.0
53940;BME280;39850;43.324;21.916;2023-12-07T05:37:51;992.0;;;3.5;85.0
53940;BME280;39850;43.324;21.916;2023-12-07T05:42:28;992.0;;;3.6;85.0
53940;BME280;39850;43.324;21.916;2023-12-07T05:47:05;992.0;;;3.6;85.0
53940;BME280;39850;43.324;21.916;2023-12-07T05:51:42;992.0;;;3.6;86.0
53940;BME280;39850;43.324;21.916;2023-12-07T05:56:21;992.0;;;3.6;86.0
53940;BME280;39850;43.324;21.916;2023-12-07T06:01:02;992.0;;;3.6;86.0
53940;BME280;39850;43.324;21.916;2023-12-07T06:05:40;992.0;;;3.6;86.0
53940;BME280;39850;43.324;21.916;2023-12-07T06:10:17;992.0;;;3.6;86.0
53940;BME280;39850;43.324;21.916;2023-12-07T06:51:44;993.0;;;3.5;86.0
53940;BME280;39850;43.324;21.916;2023-12-07T06:56:20;993.0;;;3.5;86.0
53940;BME280;39850;43.324;21.916;2023-12-07T07:00:56;993.0;;;3.5;86.0
53940;BME280;39850;43.324;21.916;2023-12-07T07:05:33;993.0;;;3.5;86.0
53940;BME280;39850;43.324;21.916;2023-12-07T07:10:10;993.0;;;3.5;86.0
53940;BME280;39850;43.324;21.916;2023-12-07T07:14:46;993.0;;;3.5;86.0
53940;BME280;39850;43.324;21.916;2023-12-07T07:19:22;993.0;;;3.5;86.0
53940;BME280;39850;43.324;21.916;2023-12-07T08:05:24;994.0;;;3.5;87.0
53940;BME280;39850;43.324;21.916;2023-12-07T08:10:01;994.0;;;3.5;87.0
53940;BME280;39850;43.324;21.916;2023-12-07T08:14:38;994.0;;;3.5;86.0
53940;BME280;39850;43.324;21.916;2023-12-07T08:19:14;994.0;;;3.5;86.0
53940;BME280;39850;43.324;21.916;2023-12-07T08:23:51;994.0;;;3.5;87.0
53940;BME280;39850;43.324;21.916;2023-12-07T08:28:27;994.0;;;3.5;87.0
53940;BME280;39850;43.324;21.916;2023-12-07T08:33:04;994.0;;;3.5;86.0
53940;BME280;39850;43.324;21.916;2023-12-07T08:37:40;994.0;;;3.5;86.0
53940;BME280;39850;43.324;21.916;2023-12-07T08:42:16;994.0;;;3.5;87.0
53940;BME280;39850;43.324;21.916;2023-12-07T08:46:53;994.0;;;3.5;87.0
53940;BME280;39850;43.324;21.916;2023-12-07T09:23:45;994.0;;;4.4;84.0
53940;BME280;39850;43.324;21.916;2023-12-07T09:28:21;994.0;;;4.4;84.0
53940;BME280;39850;43.324;21.916;2023-12-07T09:32:57;994.0;;;4.4;84.0
53940;BME280;39850;43.324;21.916;2023-12-07T09:37:35;994.0;;;4.4;84.0
53940;BME280;39850;43.324;21.916;2023-12-07T09:42:12;994.0;;;4.5;85.0
53940;BME280;39850;43.324;21.916;2023-12-07T09:46:48;994.0;;;4.5;85.0
53940;BME280;39850;43.324;21.916;2023-12-07T09:51:30;994.0;;;4.5;85.0
53940;BME280;39850;43.324;21.916;2023-12-07T09:56:09;994.0;;;4.5;85.0
53940;BME280;39850;43.324;21.916;2023-12-07T10:00:48;994.0;;;4.5;85.0
53940;BME280;39850;43.324;21.916;2023-12-07T10:05:24;994.0;;;4.5;85.0
53940;BME280;39850;43.324;21.916;2023-12-07T10:10:01;994.0;;;4.5;85.0
53940;BME280;39850;43.324;21.916;2023-12-07T10:42:34;993.0;;;4.2;87.0
53940;BME280;39850;43.324;21.916;2023-12-07T10:47:12;993.0;;;4.2;87.0
53940;BME280;39850;43.324;21.916;2023-12-07T10:52:12;994.0;;;4.0;88.0
53940;BME280;39850;43.324;21.916;2023-12-07T10:56:51;994.0;;;4.0;88.0
53940;BME280;39850;43.324;21.916;2023-12-07T11:01:33;994.0;;;4.0;88.0
53940;BME280;39850;43.324;21.916;2023-12-07T11:06:11;994.0;;;4.2;88.0
53940;BME280;39850;43.324;21.916;2023-12-07T11:11:23;994.0;;;4.2;88.0
53940;BME280;39850;43.324;21.916;2023-12-07T11:16:03;994.0;;;4.1;88.0
53940;BME280;39850;43.324;21.916;2023-12-07T11:20:46;994.0;;;4.1;88.0
53940;BME280;39850;43.324;21.916;2023-12-07T11:25:22;994.0;;;4.5;88.0
53940;BME280;39850;43.324;21.916;2023-12-07T11:30:03;994.0;;;4.5;88.0
53940;BME280;39850;43.324;21.916;2023-12-07T12:02:26;993.0;;;5.0;84.0
53940;BME280;39850;43.324;21.916;2023-12-07T12:07:04;993.0;;;5.0;84.0
53940;BME280;39850;43.324;21.916;2023-12-07T12:11:46;993.0;;;5.0;84.0
53940;BME280;39850;43.324;21.916;2023-12-07T12:16:24;993.0;;;5.0;85.0
53940;BME280;39850;43.324;21.916;2023-12-07T12:21:00;993.0;;;5.0;85.0
53940;BME280;39850;43.324;21.916;2023-12-07T12:25:39;993.0;;;5.0;85.0
53940;BME280;39850;43.324;21.916;2023-12-07T12:30:19;993.0;;;5.0;85.0
53940;BME280;39850;43.324;21.916;2023-12-07T12:34:56;993.0;;;5.2;86.0
53940;BME280;39850;43.324;21.916;2023-12-07T12:39:32;993.0;;;5.2;86.0
53940;BME280;39850;43.324;21.916;2023-12-07T12:44:09;993.0;;;5.5;86.0
53940;BME280;39850;43.324;21.916;2023-12-07T12:48:59;993.0;;;5.5;86.0
53940;BME280;39850;43.324;21.916;2023-12-07T13:25:50;993.0;;;5.2;88.0
53940;BME280;39850;43.324;21.916;2023-12-07T13:30:27;993.0;;;5.2;88.0
53940;BME280;39850;43.324;21.916;2023-12-07T13:35:07;993.0;;;5.4;88.0
53940;BME280;39850;43.324;21.916;2023-12-07T13:39:44;993.0;;;5.4;88.0
53940;BME280;39850;43.324;21.916;2023-12-07T13:44:20;993.0;;;5.5;88.0
53940;BME280;39850;43.324;21.916;2023-12-07T13:48:57;993.0;;;5.5;88.0
53940;BME280;39850;43.324;21.916;2023-12-07T13:53:34;993.0;;;5.5;87.0
53940;BME280;39850;43.324;21.916;2023-12-07T13:58:11;993.0;;;5.5;87.0
53940;BME280;39850;43.324;21.916;2023-12-07T14:02:47;993.0;;;5.5;86.0
53940;BME280;39850;43.324;21.916;2023-12-07T14:07:24;993.0;;;5.5;86.0
53940;BME280;39850;43.324;21.916;2023-12-07T14:12:01;993.0;;;5.5;86.0
53940;BME280;39850;43.324;21.916;2023-12-07T14:44:21;994.0;;;4.5;88.0
53940;BME280;39850;43.324;21.916;2023-12-07T14:48:57;994.0;;;4.5;88.0
53940;BME280;39850;43.324;21.916;2023-12-07T14:53:33;994.0;;;4.6;87.0
53940;BME280;39850;43.324;21.916;2023-12-07T14:58:10;994.0;;;4.6;87.0
53940;BME280;39850;43.324;21.916;2023-12-07T15:02:46;994.0;;;4.6;87.0
53940;BME280;39850;43.324;21.916;2023-12-07T15:07:22;994.0;;;4.8;87.0
53940;BME280;39850;43.324;21.916;2023-12-07T15:11:59;994.0;;;4.8;87.0
53940;BME280;39850;43.324;21.916;2023-12-07T15:16:35;994.0;;;5.2;87.0
53940;BME280;39850;43.324;21.916;2023-12-07T15:21:14;994.0;;;5.2;87.0
53940;BME280;39850;43.324;21.916;2023-12-07T15:25:51;994.0;;;5.5;86.0
53940;BME280;39850;43.324;21.916;2023-12-07T15:30:27;994.0;;;5.5;86.0
53940;BME280;39850;43.324;21.916;2023-12-07T16:07:20;994.0;;;5.5;88.0
53940;BME280;39850;43.324;21.916;2023-12-07T16:11:59;994.0;;;5.5;88.0
53940;BME280;39850;43.324;21.916;2023-12-07T16:16:35;994.0;;;5.5;87.0
53940;BME280;39850;43.324;21.916;2023-12-07T16:21:12;994.0;;;5.5;87.0
53940;BME280;39850;43.324;21.916;2023-12-07T16:25:49;994.0;;;5.5;88.0
53940;BME280;39850;43.324;21.916;2023-12-07T16:30:26;994.0;;;5.5;88.0
53940;BME280;39850;43.324;21.916;2023-12-07T16:35:04;994.0;;;5.4;87.0
53940;BME280;39850;43.324;21.916;2023-12-07T16:39:44;994.0;;;5.4;87.0
53940;BME280;39850;43.324;21.916;2023-12-07T16:44:21;994.0;;;5.4;88.0
53940;BME280;39850;43.324;21.916;2023-12-07T16:48:58;994.0;;;5.4;88.0
53940;BME280;39850;43.324;21.916;2023-12-07T17:25:48;995.0;;;5.5;87.0
53940;BME280;39850;43.324;21.916;2023-12-07T17:30:24;995.0;;;5.5;87.0
53940;BME280;39850;43.324;21.916;2023-12-07T17:35:01;995.0;;;5.5;87.0
53940;BME280;39850;43.324;21.916;2023-12-07T17:39:37;995.0;;;5.5;87.0
53940;BME280;39850;43.324;21.916;2023-12-07T17:44:14;995.0;;;5.5;87.0
53940;BME280;39850;43.324;21.916;2023-12-07T17:48:50;995.0;;;5.5;87.0
53940;BME280;39850;43.324;21.916;2023-12-07T17:53:27;995.0;;;5.5;86.0
53940;BME280;39850;43.324;21.916;2023-12-07T17:58:03;995.0;;;5.5;86.0
53940;BME280;39850;43.324;21.916;2023-12-07T18:02:39;995.0;;;5.5;86.0
53940;BME280;39850;43.324;21.916;2023-12-07T18:07:16;995.0;;;5.5;85.0
53940;BME280;39850;43.324;21.916;2023-12-07T18:11:53;995.0;;;5.5;85.0
53940;BME280;39850;43.324;21.916;2023-12-07T18:44:07;995.0;;;5.5;84.0
53940;BME280;39850;43.324;21.916;2023-12-07T18:48:44;995.0;;;5.5;84.0
53940;BME280;39850;43.324;21.916;2023-12-07T18:53:20;995.0;;;5.5;84.0
53940;BME280;39850;43.324;21.916;2023-12-07T18:57:57;995.0;;;5.5;84.0
53940;BME280;39850;43.324;21.916;2023-12-07T19:02:34;995.0;;;5.5;84.0
53940;BME280;39850;43.324;21.916;2023-12-07T19:07:10;995.0;;;5.5;84.0
53940;BME280;39850;43.324;21.916;2023-12-07T19:11:47;995.0;;;5.5;84.0
53940;BME280;39850;43.324;21.916;2023-12-07T19:16:23;995.0;;;5.5;84.0
53940;BME280;39850;43.324;21.916;2023-12-07T19:20:59;995.0;;;5.5;84.0
53940;BME280;39850;43.324;21.916;2023-12-07T19:25:36;995.0;;;5.5;84.0
53940;BME280;39850;43.324;21.916;2023-12-07T19:30:13;995.0;;;5.5;84.0
53940;BME280;39850;43.324;21.916;2023-12-07T20:07:04;995.0;;;4.9;87.0
53940;BME280;39850;43.324;21.916;2023-12-07T20:11:42;995.0;;;4.9;87.0
53940;BME280;39850;43.324;21.916;2023-12-07T20:16:20;995.0;;;4.8;88.0
53940;BME280;39850;43.324;21.916;2023-12-07T20:20:57;995.0;;;4.8;88.0
53940;BME280;39850;43.324;21.916;2023-12-07T20:25:33;995.0;;;4.7;88.0
53940;BME280;39850;43.324;21.916;2023-12-07T20:30:12;995.0;;;4.7;88.0
53940;BME280;39850;43.324;21.916;2023-12-07T20:34:49;995.0;;;4.6;89.0
53940;BME280;39850;43.324;21.916;2023-12-07T20:39:25;995.0;;;4.6;89.0
53940;BME280;39850;43.324;21.916;2023-12-07T20:44:02;995.0;;;4.6;88.0
53940;BME280;39850;43.324;21.916;2023-12-07T20:48:38;995.0;;;4.6;88.0
53940;BME280;39850;43.324;21.916;2023-12-07T20:53:15;995.0;;;4.6;88.0
53940;BME280;39850;43.324;21.916;2023-12-07T21:25:29;995.0;;;5.5;84.0
53940;BME280;39850;43.324;21.916;2023-12-07T21:30:11;995.0;;;5.5;84.0
53940;BME280;39850;43.324;21.916;2023-12-07T21:34:47;995.0;;;5.4;84.0
53940;BME280;39850;43.324;21.916;2023-12-07T21:39:24;995.0;;;5.4;84.0
53940;BME280;39850;43.324;21.916;2023-12-07T21:44:01;995.0;;;5.4;84.0
53940;BME280;39850;43.324;21.916;2023-12-07T21:48:37;995.0;;;5.4;84.0
53940;BME280;39850;43.324;21.916;2023-12-07T21:53:14;995.0;;;5.4;84.0
53940;BME280;39850;43.324;21.916;2023-12-07T21:57:51;995.0;;;5.4;84.0
53940;BME280;39850;43.324;21.916;2023-12-07T22:02:27;995.0;;;5.4;84.0
53940;BME280;39850;43.324;21.916;2023-12-07T22:07:04;995.0;;;5.4;84.0
53940;BME280;39850;43.324;21.916;2023-12-07T22:11:44;995.0;;;5.4;84.0
53940;BME280;39850;43.324;21.916;2023-12-07T22:48:39;995.0;;;5.3;83.0
53940;BME280;39850;43.324;21.916;2023-12-07T22:53:15;995.0;;;5.3;83.0
53940;BME280;39850;43.324;21.916;2023-12-07T22:57:51;995.0;;;5.4;83.0
53940;BME280;39850;43.324;21.916;2023-12-07T23:02:28;995.0;;;5.4;83.0
53940;BME280;39850;43.324;21.916;2023-12-07T23:07:04;995.0;;;5.4;83.0
53940;BME280;39850;43.324;21.916;2023-12-07T23:11:40;995.0;;;5.4;83.0
53940;BME280;39850;43.324;21.916;2023-12-07T23:16:18;995.0;;;5.4;84.0
53940;BME280;39850;43.324;21.916;2023-12-07T23:20:55;995.0;;;5.4;84.0
53940;BME280;39850;43.324;21.916;2023-12-07T23:25:31;995.0;;;5.5;84.0
53940;BME280;39850;43.324;21.916;2023-12-07T23:30:11;995.0;;;5.5;84.0
